sensor_id;sensor_type;location;lat;lon;timestamp;P1;durP1;ratioP1;P2;durP2;ratioP2
37983;SDS011;64625;50.882;4.376;2023-04-03T00:01:16;19.55;;;10.75;;
37983;SDS011;64625;50.882;4.376;2023-04-03T00:03:42;22.67;;;9.80;;
37983;SDS011;64625;50.882;4.376;2023-04-03T00:06:08;16.27;;;11.45;;
37983;SDS011;64625;50.882;4.376;2023-04-03T00:08:36;12.52;;;9.07;;
37983;SDS011;64625;50.882;4.376;2023-04-03T00:11:02;18.00;;;9.80;;
37983;SDS011;64625;50.882;4.376;2023-04-03T00:13:29;17.25;;;10.68;;
37983;SDS011;64625;50.882;4.376;2023-04-03T00:15:55;21.50;;;10.77;;
37983;SDS011;64625;50.882;4.376;2023-04-03T00:18:21;19.48;;;11.32;;
37983;SDS011;64625;50.882;4.376;2023-04-03T00:20:47;27.92;;;10.85;;
37983;SDS011;64625;50.882;4.376;2023-04-03T00:23:14;22.75;;;11.02;;
37983;SDS011;64625;50.882;4.376;2023-04-03T00:25:40;14.30;;;9.13;;
37983;SDS011;64625;50.882;4.376;2023-04-03T00:28:06;20.67;;;9.68;;
37983;SDS011;64625;50.882;4.376;2023-04-03T00:30:32;18.17;;;9.77;;
37983;SDS011;64625;50.882;4.376;2023-04-03T00:32:58;21.48;;;9.50;;
37983;SDS011;64625;50.882;4.376;2023-04-03T00:35:26;26.60;;;9.55;;
37983;SDS011;64625;50.882;4.376;2023-04-03T00:37:53;15.48;;;8.88;;
37983;SDS011;64625;50.882;4.376;2023-04-03T00:40:22;20.50;;;8.75;;
37983;SDS011;64625;50.882;4.376;2023-04-03T00:42:51;15.38;;;7.57;;
37983;SDS011;64625;50.882;4.376;2023-04-03T00:45:24;25.52;;;10.27;;
37983;SDS011;64625;50.882;4.376;2023-04-03T00:48:06;19.80;;;8.88;;
37983;SDS011;64625;50.882;4.376;2023-04-03T00:50:37;12.45;;;7.28;;
37983;SDS011;64625;50.882;4.376;2023-04-03T00:53:06;18.98;;;9.50;;
37983;SDS011;64625;50.882;4.376;2023-04-03T00:58:02;10.52;;;8.15;;
37983;SDS011;64625;50.882;4.376;2023-04-03T01:00:32;15.30;;;8.38;;
37983;SDS011;64625;50.882;4.376;2023-04-03T01:02:58;20.65;;;9.57;;
37983;SDS011;64625;50.882;4.376;2023-04-03T01:05:24;18.10;;;8.30;;
37983;SDS011;64625;50.882;4.376;2023-04-03T01:07:50;23.27;;;10.00;;
37983;SDS011;64625;50.882;4.376;2023-04-03T01:10:18;30.83;;;9.48;;
37983;SDS011;64625;50.882;4.376;2023-04-03T01:12:46;26.27;;;8.50;;
37983;SDS011;64625;50.882;4.376;2023-04-03T01:15:24;24.05;;;9.32;;
37983;SDS011;64625;50.882;4.376;2023-04-03T01:17:52;17.30;;;8.73;;
37983;SDS011;64625;50.882;4.376;2023-04-03T01:25:29;13.60;;;8.45;;
37983;SDS011;64625;50.882;4.376;2023-04-03T01:27:54;19.67;;;8.68;;
37983;SDS011;64625;50.882;4.376;2023-04-03T01:30:25;16.30;;;7.78;;
37983;SDS011;64625;50.882;4.376;2023-04-03T01:32:56;17.30;;;7.35;;
37983;SDS011;64625;50.882;4.376;2023-04-03T01:35:23;16.63;;;8.93;;
37983;SDS011;64625;50.882;4.376;2023-04-03T01:37:48;22.58;;;7.70;;
37983;SDS011;64625;50.882;4.376;2023-04-03T01:40:14;18.48;;;8.07;;
37983;SDS011;64625;50.882;4.376;2023-04-03T01:42:40;14.13;;;8.55;;
37983;SDS011;64625;50.882;4.376;2023-04-03T01:45:06;15.43;;;7.47;;
37983;SDS011;64625;50.882;4.376;2023-04-03T01:47:32;16.55;;;7.65;;
37983;SDS011;64625;50.882;4.376;2023-04-03T01:50:03;22.73;;;8.90;;
37983;SDS011;64625;50.882;4.376;2023-04-03T01:52:29;13.93;;;7.68;;
37983;SDS011;64625;50.882;4.376;2023-04-03T01:54:55;11.55;;;6.60;;
37983;SDS011;64625;50.882;4.376;2023-04-03T01:57:21;14.50;;;8.05;;
37983;SDS011;64625;50.882;4.376;2023-04-03T01:59:47;16.00;;;8.20;;
37983;SDS011;64625;50.882;4.376;2023-04-03T02:02:12;14.30;;;7.32;;
37983;SDS011;64625;50.882;4.376;2023-04-03T02:04:39;16.38;;;7.63;;
37983;SDS011;64625;50.882;4.376;2023-04-03T02:07:06;15.50;;;7.28;;
37983;SDS011;64625;50.882;4.376;2023-04-03T02:09:31;13.20;;;7.57;;
37983;SDS011;64625;50.882;4.376;2023-04-03T02:11:59;9.25;;;7.13;;
37983;SDS011;64625;50.882;4.376;2023-04-03T02:14:24;15.73;;;8.02;;
37983;SDS011;64625;50.882;4.376;2023-04-03T02:16:52;12.35;;;7.28;;
37983;SDS011;64625;50.882;4.376;2023-04-03T02:19:25;18.73;;;7.15;;
37983;SDS011;64625;50.882;4.376;2023-04-03T02:21:51;17.45;;;7.25;;
37983;SDS011;64625;50.882;4.376;2023-04-03T02:24:16;11.27;;;6.60;;
37983;SDS011;64625;50.882;4.376;2023-04-03T02:26:42;11.95;;;8.32;;
37983;SDS011;64625;50.882;4.376;2023-04-03T02:29:11;15.68;;;6.90;;
37983;SDS011;64625;50.882;4.376;2023-04-03T02:31:37;17.05;;;8.82;;
37983;SDS011;64625;50.882;4.376;2023-04-03T02:34:02;18.73;;;6.35;;
37983;SDS011;64625;50.882;4.376;2023-04-03T02:36:29;15.27;;;7.18;;
37983;SDS011;64625;50.882;4.376;2023-04-03T02:38:54;15.90;;;7.65;;
37983;SDS011;64625;50.882;4.376;2023-04-03T02:41:20;10.27;;;6.43;;
37983;SDS011;64625;50.882;4.376;2023-04-03T02:43:46;13.10;;;7.60;;
37983;SDS011;64625;50.882;4.376;2023-04-03T02:46:12;17.08;;;7.32;;
37983;SDS011;64625;50.882;4.376;2023-04-03T02:48:40;14.77;;;7.38;;
37983;SDS011;64625;50.882;4.376;2023-04-03T02:51:06;13.18;;;7.60;;
37983;SDS011;64625;50.882;4.376;2023-04-03T02:53:32;12.57;;;7.47;;
37983;SDS011;64625;50.882;4.376;2023-04-03T02:55:57;12.30;;;6.93;;
37983;SDS011;64625;50.882;4.376;2023-04-03T02:58:23;15.25;;;7.40;;
37983;SDS011;64625;50.882;4.376;2023-04-03T03:00:49;11.90;;;7.05;;
37983;SDS011;64625;50.882;4.376;2023-04-03T03:03:18;19.20;;;9.50;;
37983;SDS011;64625;50.882;4.376;2023-04-03T03:05:44;15.23;;;6.75;;
37983;SDS011;64625;50.882;4.376;2023-04-03T03:08:10;12.95;;;7.18;;
37983;SDS011;64625;50.882;4.376;2023-04-03T03:10:36;11.98;;;7.95;;
37983;SDS011;64625;50.882;4.376;2023-04-03T03:13:01;14.13;;;8.35;;
37983;SDS011;64625;50.882;4.376;2023-04-03T03:15:27;17.23;;;8.07;;
37983;SDS011;64625;50.882;4.376;2023-04-03T03:17:53;20.67;;;8.32;;
37983;SDS011;64625;50.882;4.376;2023-04-03T03:20:19;15.50;;;8.57;;
37983;SDS011;64625;50.882;4.376;2023-04-03T03:22:45;22.75;;;9.40;;
37983;SDS011;64625;50.882;4.376;2023-04-03T03:25:11;20.80;;;8.68;;
37983;SDS011;64625;50.882;4.376;2023-04-03T03:27:37;29.45;;;10.85;;
37983;SDS011;64625;50.882;4.376;2023-04-03T03:30:03;18.05;;;7.88;;
37983;SDS011;64625;50.882;4.376;2023-04-03T03:32:30;14.65;;;8.20;;
37983;SDS011;64625;50.882;4.376;2023-04-03T03:34:55;22.45;;;8.65;;
37983;SDS011;64625;50.882;4.376;2023-04-03T03:37:24;20.08;;;8.18;;
37983;SDS011;64625;50.882;4.376;2023-04-03T03:39:50;17.63;;;9.18;;
37983;SDS011;64625;50.882;4.376;2023-04-03T03:42:16;21.83;;;8.07;;
37983;SDS011;64625;50.882;4.376;2023-04-03T03:44:41;25.65;;;9.40;;
37983;SDS011;64625;50.882;4.376;2023-04-03T03:47:07;27.83;;;9.70;;
37983;SDS011;64625;50.882;4.376;2023-04-03T03:49:36;28.95;;;10.40;;
37983;SDS011;64625;50.882;4.376;2023-04-03T03:52:01;15.18;;;9.02;;
37983;SDS011;64625;50.882;4.376;2023-04-03T03:54:27;27.73;;;9.90;;
37983;SDS011;64625;50.882;4.376;2023-04-03T03:56:53;22.35;;;8.60;;
37983;SDS011;64625;50.882;4.376;2023-04-03T03:59:19;21.10;;;10.30;;
37983;SDS011;64625;50.882;4.376;2023-04-03T04:01:45;18.02;;;8.93;;
37983;SDS011;64625;50.882;4.376;2023-04-03T04:04:11;16.10;;;10.32;;
37983;SDS011;64625;50.882;4.376;2023-04-03T04:06:37;21.48;;;9.05;;
37983;SDS011;64625;50.882;4.376;2023-04-03T04:09:02;25.50;;;9.27;;
37983;SDS011;64625;50.882;4.376;2023-04-03T04:11:28;27.02;;;9.82;;
37983;SDS011;64625;50.882;4.376;2023-04-03T04:13:54;18.52;;;9.23;;
37983;SDS011;64625;50.882;4.376;2023-04-03T04:16:20;24.45;;;8.85;;
37983;SDS011;64625;50.882;4.376;2023-04-03T04:18:47;21.63;;;7.53;;
37983;SDS011;64625;50.882;4.376;2023-04-03T04:21:12;21.20;;;10.70;;
37983;SDS011;64625;50.882;4.376;2023-04-03T04:23:38;24.30;;;8.30;;
37983;SDS011;64625;50.882;4.376;2023-04-03T04:26:04;16.92;;;7.90;;
37983;SDS011;64625;50.882;4.376;2023-04-03T04:28:30;27.13;;;9.18;;
37983;SDS011;64625;50.882;4.376;2023-04-03T04:30:56;23.27;;;8.63;;
37983;SDS011;64625;50.882;4.376;2023-04-03T04:33:21;11.80;;;8.55;;
37983;SDS011;64625;50.882;4.376;2023-04-03T04:35:48;23.83;;;10.10;;
37983;SDS011;64625;50.882;4.376;2023-04-03T04:38:14;22.38;;;8.90;;
37983;SDS011;64625;50.882;4.376;2023-04-03T04:40:39;20.17;;;8.35;;
37983;SDS011;64625;50.882;4.376;2023-04-03T04:43:06;14.10;;;8.00;;
37983;SDS011;64625;50.882;4.376;2023-04-03T04:45:32;22.40;;;10.27;;
37983;SDS011;64625;50.882;4.376;2023-04-03T04:47:58;19.83;;;9.50;;
37983;SDS011;64625;50.882;4.376;2023-04-03T04:50:23;13.15;;;8.77;;
37983;SDS011;64625;50.882;4.376;2023-04-03T04:52:49;25.33;;;9.77;;
37983;SDS011;64625;50.882;4.376;2023-04-03T04:55:15;15.50;;;8.20;;
37983;SDS011;64625;50.882;4.376;2023-04-03T04:57:41;15.40;;;7.93;;
37983;SDS011;64625;50.882;4.376;2023-04-03T05:00:07;19.00;;;8.15;;
37983;SDS011;64625;50.882;4.376;2023-04-03T05:02:33;12.98;;;8.32;;
37983;SDS011;64625;50.882;4.376;2023-04-03T05:04:59;15.57;;;9.05;;
37983;SDS011;64625;50.882;4.376;2023-04-03T05:07:26;21.52;;;8.95;;
37983;SDS011;64625;50.882;4.376;2023-04-03T05:09:52;19.30;;;8.30;;
37983;SDS011;64625;50.882;4.376;2023-04-03T05:12:18;21.17;;;9.18;;
37983;SDS011;64625;50.882;4.376;2023-04-03T05:14:44;21.50;;;9.15;;
37983;SDS011;64625;50.882;4.376;2023-04-03T05:17:12;27.45;;;9.85;;
37983;SDS011;64625;50.882;4.376;2023-04-03T05:19:39;20.27;;;10.65;;
37983;SDS011;64625;50.882;4.376;2023-04-03T05:22:04;22.92;;;10.00;;
37983;SDS011;64625;50.882;4.376;2023-04-03T05:24:31;25.30;;;13.73;;
37983;SDS011;64625;50.882;4.376;2023-04-03T05:26:56;21.60;;;11.15;;
37983;SDS011;64625;50.882;4.376;2023-04-03T05:29:22;33.47;;;12.82;;
37983;SDS011;64625;50.882;4.376;2023-04-03T05:31:49;22.52;;;11.05;;
37983;SDS011;64625;50.882;4.376;2023-04-03T05:34:15;25.85;;;11.77;;
37983;SDS011;64625;50.882;4.376;2023-04-03T05:36:44;23.15;;;10.52;;
37983;SDS011;64625;50.882;4.376;2023-04-03T05:39:10;34.58;;;14.13;;
37983;SDS011;64625;50.882;4.376;2023-04-03T05:41:36;20.88;;;10.75;;
37983;SDS011;64625;50.882;4.376;2023-04-03T05:44:05;25.77;;;11.18;;
37983;SDS011;64625;50.882;4.376;2023-04-03T05:46:31;19.63;;;11.60;;
37983;SDS011;64625;50.882;4.376;2023-04-03T05:48:59;18.00;;;11.52;;
37983;SDS011;64625;50.882;4.376;2023-04-03T05:51:27;25.45;;;12.65;;
37983;SDS011;64625;50.882;4.376;2023-04-03T05:54:00;26.88;;;13.43;;
37983;SDS011;64625;50.882;4.376;2023-04-03T05:56:37;25.60;;;13.48;;
37983;SDS011;64625;50.882;4.376;2023-04-03T05:59:03;33.60;;;13.45;;
37983;SDS011;64625;50.882;4.376;2023-04-03T06:01:29;29.40;;;12.10;;
37983;SDS011;64625;50.882;4.376;2023-04-03T06:03:56;32.70;;;12.18;;
37983;SDS011;64625;50.882;4.376;2023-04-03T06:06:23;23.67;;;13.48;;
37983;SDS011;64625;50.882;4.376;2023-04-03T06:08:49;29.85;;;14.18;;
37983;SDS011;64625;50.882;4.376;2023-04-03T06:11:16;24.90;;;13.50;;
37983;SDS011;64625;50.882;4.376;2023-04-03T06:13:47;36.00;;;14.90;;
37983;SDS011;64625;50.882;4.376;2023-04-03T06:16:18;26.30;;;14.18;;
37983;SDS011;64625;50.882;4.376;2023-04-03T06:18:54;29.02;;;13.25;;
37983;SDS011;64625;50.882;4.376;2023-04-03T06:21:21;23.67;;;13.00;;
37983;SDS011;64625;50.882;4.376;2023-04-03T06:23:47;21.00;;;13.27;;
37983;SDS011;64625;50.882;4.376;2023-04-03T06:26:13;28.83;;;14.25;;
37983;SDS011;64625;50.882;4.376;2023-04-03T06:28:39;24.33;;;13.80;;
37983;SDS011;64625;50.882;4.376;2023-04-03T06:31:05;31.17;;;14.70;;
37983;SDS011;64625;50.882;4.376;2023-04-03T06:33:31;34.53;;;16.58;;
37983;SDS011;64625;50.882;4.376;2023-04-03T06:35:58;24.67;;;14.50;;
37983;SDS011;64625;50.882;4.376;2023-04-03T06:38:24;27.90;;;14.95;;
37983;SDS011;64625;50.882;4.376;2023-04-03T06:40:50;24.05;;;15.27;;
37983;SDS011;64625;50.882;4.376;2023-04-03T06:43:18;26.55;;;14.98;;
37983;SDS011;64625;50.882;4.376;2023-04-03T06:48:52;36.25;;;19.05;;
37983;SDS011;64625;50.882;4.376;2023-04-03T06:51:23;27.63;;;15.80;;
37983;SDS011;64625;50.882;4.376;2023-04-03T06:53:59;29.88;;;15.80;;
37983;SDS011;64625;50.882;4.376;2023-04-03T06:56:26;31.65;;;17.73;;
37983;SDS011;64625;50.882;4.376;2023-04-03T06:58:53;31.05;;;17.17;;
37983;SDS011;64625;50.882;4.376;2023-04-03T07:01:23;24.88;;;15.27;;
37983;SDS011;64625;50.882;4.376;2023-04-03T07:03:51;30.73;;;16.83;;
37983;SDS011;64625;50.882;4.376;2023-04-03T07:06:18;23.65;;;16.80;;
37983;SDS011;64625;50.882;4.376;2023-04-03T07:08:45;25.92;;;15.57;;
37983;SDS011;64625;50.882;4.376;2023-04-03T07:11:13;26.13;;;15.80;;
37983;SDS011;64625;50.882;4.376;2023-04-03T07:13:39;33.72;;;15.50;;
37983;SDS011;64625;50.882;4.376;2023-04-03T07:16:07;25.33;;;16.42;;
37983;SDS011;64625;50.882;4.376;2023-04-03T07:18:33;24.05;;;14.13;;
37983;SDS011;64625;50.882;4.376;2023-04-03T07:21:00;25.55;;;14.82;;
37983;SDS011;64625;50.882;4.376;2023-04-03T07:23:26;26.92;;;14.30;;
37983;SDS011;64625;50.882;4.376;2023-04-03T07:25:53;24.15;;;14.15;;
37983;SDS011;64625;50.882;4.376;2023-04-03T07:28:19;22.17;;;14.35;;
37983;SDS011;64625;50.882;4.376;2023-04-03T07:30:51;24.52;;;15.40;;
37983;SDS011;64625;50.882;4.376;2023-04-03T07:35:45;20.02;;;13.93;;
37983;SDS011;64625;50.882;4.376;2023-04-03T07:38:12;26.50;;;13.88;;
37983;SDS011;64625;50.882;4.376;2023-04-03T07:40:45;23.00;;;12.98;;
37983;SDS011;64625;50.882;4.376;2023-04-03T07:43:18;20.35;;;12.90;;
37983;SDS011;64625;50.882;4.376;2023-04-03T07:45:46;19.40;;;12.60;;
37983;SDS011;64625;50.882;4.376;2023-04-03T07:48:15;19.70;;;12.68;;
37983;SDS011;64625;50.882;4.376;2023-04-03T07:50:42;19.52;;;13.15;;
37983;SDS011;64625;50.882;4.376;2023-04-03T07:53:09;27.85;;;16.02;;
37983;SDS011;64625;50.882;4.376;2023-04-03T07:55:35;24.15;;;13.15;;
37983;SDS011;64625;50.882;4.376;2023-04-03T07:58:07;20.92;;;12.18;;
37983;SDS011;64625;50.882;4.376;2023-04-03T08:00:38;18.50;;;12.98;;
37983;SDS011;64625;50.882;4.376;2023-04-03T08:03:04;22.15;;;12.88;;
37983;SDS011;64625;50.882;4.376;2023-04-03T08:05:30;24.08;;;12.38;;
37983;SDS011;64625;50.882;4.376;2023-04-03T08:07:57;19.27;;;11.85;;
37983;SDS011;64625;50.882;4.376;2023-04-03T08:10:23;18.85;;;14.13;;
37983;SDS011;64625;50.882;4.376;2023-04-03T08:12:49;27.73;;;12.23;;
37983;SDS011;64625;50.882;4.376;2023-04-03T08:15:15;20.52;;;11.93;;
37983;SDS011;64625;50.882;4.376;2023-04-03T08:17:41;24.13;;;11.82;;
37983;SDS011;64625;50.882;4.376;2023-04-03T08:20:07;16.75;;;12.07;;
37983;SDS011;64625;50.882;4.376;2023-04-03T08:22:35;24.88;;;12.30;;
37983;SDS011;64625;50.882;4.376;2023-04-03T08:25:01;19.75;;;11.00;;
37983;SDS011;64625;50.882;4.376;2023-04-03T08:27:26;19.58;;;11.38;;
37983;SDS011;64625;50.882;4.376;2023-04-03T08:29:54;24.15;;;12.93;;
37983;SDS011;64625;50.882;4.376;2023-04-03T08:32:20;30.08;;;13.02;;
37983;SDS011;64625;50.882;4.376;2023-04-03T08:34:47;19.05;;;10.63;;
37983;SDS011;64625;50.882;4.376;2023-04-03T08:37:13;22.67;;;10.90;;
37983;SDS011;64625;50.882;4.376;2023-04-03T08:39:41;15.30;;;8.52;;
37983;SDS011;64625;50.882;4.376;2023-04-03T08:50:47;12.05;;;8.50;;
37983;SDS011;64625;50.882;4.376;2023-04-03T08:53:27;16.17;;;8.82;;
37983;SDS011;64625;50.882;4.376;2023-04-03T08:55:58;15.73;;;8.45;;
37983;SDS011;64625;50.882;4.376;2023-04-03T08:58:28;13.88;;;7.47;;
37983;SDS011;64625;50.882;4.376;2023-04-03T09:03:28;13.68;;;7.03;;
37983;SDS011;64625;50.882;4.376;2023-04-03T09:08:40;13.30;;;6.45;;
37983;SDS011;64625;50.882;4.376;2023-04-03T09:14:47;14.35;;;6.20;;
37983;SDS011;64625;50.882;4.376;2023-04-03T09:25:42;12.40;;;4.20;;
37983;SDS011;64625;50.882;4.376;2023-04-03T09:28:09;16.42;;;4.97;;
37983;SDS011;64625;50.882;4.376;2023-04-03T09:30:35;9.95;;;4.75;;
37983;SDS011;64625;50.882;4.376;2023-04-03T09:33:03;9.52;;;4.88;;
37983;SDS011;64625;50.882;4.376;2023-04-03T09:35:31;7.75;;;3.92;;
37983;SDS011;64625;50.882;4.376;2023-04-03T09:40:37;11.48;;;4.50;;
37983;SDS011;64625;50.882;4.376;2023-04-03T09:45:45;18.10;;;3.42;;
37983;SDS011;64625;50.882;4.376;2023-04-03T09:50:41;4.07;;;2.60;;
37983;SDS011;64625;50.882;4.376;2023-04-03T09:53:28;6.53;;;3.17;;
37983;SDS011;64625;50.882;4.376;2023-04-03T09:55:55;4.97;;;3.20;;
37983;SDS011;64625;50.882;4.376;2023-04-03T09:58:31;5.45;;;3.15;;
37983;SDS011;64625;50.882;4.376;2023-04-03T10:01:31;8.70;;;2.70;;
37983;SDS011;64625;50.882;4.376;2023-04-03T10:06:40;12.15;;;2.63;;
37983;SDS011;64625;50.882;4.376;2023-04-03T10:09:33;8.05;;;3.97;;
37983;SDS011;64625;50.882;4.376;2023-04-03T10:14:40;8.68;;;2.35;;
37983;SDS011;64625;50.882;4.376;2023-04-03T10:17:30;3.92;;;2.00;;
37983;SDS011;64625;50.882;4.376;2023-04-03T10:39:12;4.63;;;2.40;;
37983;SDS011;64625;50.882;4.376;2023-04-03T10:41:56;4.60;;;2.67;;
37983;SDS011;64625;50.882;4.376;2023-04-03T10:55:36;3.17;;;2.45;;
37983;SDS011;64625;50.882;4.376;2023-04-03T10:58:29;13.65;;;3.55;;
37983;SDS011;64625;50.882;4.376;2023-04-03T11:01:01;10.27;;;2.60;;
37983;SDS011;64625;50.882;4.376;2023-04-03T11:03:38;5.20;;;1.88;;
37983;SDS011;64625;50.882;4.376;2023-04-03T11:06:12;7.20;;;2.42;;
37983;SDS011;64625;50.882;4.376;2023-04-03T11:08:54;6.13;;;2.83;;
37983;SDS011;64625;50.882;4.376;2023-04-03T11:11:35;15.70;;;2.60;;
37983;SDS011;64625;50.882;4.376;2023-04-03T11:16:45;10.93;;;2.47;;
37983;SDS011;64625;50.882;4.376;2023-04-03T11:19:27;9.27;;;4.35;;
37983;SDS011;64625;50.882;4.376;2023-04-03T11:27:45;7.93;;;2.20;;
37983;SDS011;64625;50.882;4.376;2023-04-03T11:30:33;7.25;;;2.22;;
37983;SDS011;64625;50.882;4.376;2023-04-03T11:35:53;6.55;;;2.78;;
37983;SDS011;64625;50.882;4.376;2023-04-03T11:38:28;3.78;;;1.92;;
37983;SDS011;64625;50.882;4.376;2023-04-03T11:41:01;7.53;;;2.42;;
37983;SDS011;64625;50.882;4.376;2023-04-03T11:43:30;9.60;;;1.90;;
37983;SDS011;64625;50.882;4.376;2023-04-03T11:46:00;6.53;;;3.10;;
37983;SDS011;64625;50.882;4.376;2023-04-03T11:53:39;6.80;;;3.13;;
37983;SDS011;64625;50.882;4.376;2023-04-03T12:01:47;4.97;;;2.20;;
37983;SDS011;64625;50.882;4.376;2023-04-03T12:04:26;11.43;;;2.60;;
37983;SDS011;64625;50.882;4.376;2023-04-03T12:07:16;3.38;;;2.03;;
37983;SDS011;64625;50.882;4.376;2023-04-03T12:14:55;8.00;;;2.83;;
37983;SDS011;64625;50.882;4.376;2023-04-03T12:17:37;6.00;;;2.20;;
37983;SDS011;64625;50.882;4.376;2023-04-03T12:20:28;16.33;;;2.75;;
37983;SDS011;64625;50.882;4.376;2023-04-03T12:23:08;6.13;;;2.15;;
37983;SDS011;64625;50.882;4.376;2023-04-03T12:25:50;9.02;;;1.88;;
37983;SDS011;64625;50.882;4.376;2023-04-03T12:28:16;3.60;;;1.65;;
37983;SDS011;64625;50.882;4.376;2023-04-03T12:30:43;4.93;;;1.85;;
37983;SDS011;64625;50.882;4.376;2023-04-03T12:41:46;11.40;;;2.60;;
37983;SDS011;64625;50.882;4.376;2023-04-03T12:46:52;10.98;;;1.60;;
37983;SDS011;64625;50.882;4.376;2023-04-03T12:49:30;2.90;;;1.40;;
37983;SDS011;64625;50.882;4.376;2023-04-03T12:52:16;6.97;;;1.95;;
37983;SDS011;64625;50.882;4.376;2023-04-03T12:54:43;5.90;;;2.55;;
37983;SDS011;64625;50.882;4.376;2023-04-03T12:57:18;3.60;;;1.83;;
37983;SDS011;64625;50.882;4.376;2023-04-03T12:59:46;7.93;;;2.25;;
37983;SDS011;64625;50.882;4.376;2023-04-03T13:02:23;10.18;;;2.58;;
37983;SDS011;64625;50.882;4.376;2023-04-03T13:04:58;9.32;;;2.10;;
37983;SDS011;64625;50.882;4.376;2023-04-03T13:07:35;8.50;;;1.48;;
37983;SDS011;64625;50.882;4.376;2023-04-03T13:12:33;4.28;;;2.20;;
37983;SDS011;64625;50.882;4.376;2023-04-03T13:15:22;8.90;;;1.90;;
37983;SDS011;64625;50.882;4.376;2023-04-03T13:18:23;4.82;;;2.28;;
37983;SDS011;64625;50.882;4.376;2023-04-03T13:23:31;2.65;;;1.50;;
37983;SDS011;64625;50.882;4.376;2023-04-03T13:26:00;4.55;;;2.28;;
37983;SDS011;64625;50.882;4.376;2023-04-03T13:28:29;6.03;;;1.75;;
37983;SDS011;64625;50.882;4.376;2023-04-03T13:30:59;6.50;;;2.20;;
37983;SDS011;64625;50.882;4.376;2023-04-03T13:33:27;2.55;;;1.40;;
37983;SDS011;64625;50.882;4.376;2023-04-03T13:39:06;2.50;;;1.60;;
37983;SDS011;64625;50.882;4.376;2023-04-03T13:41:54;14.05;;;1.92;;
37983;SDS011;64625;50.882;4.376;2023-04-03T13:44:29;8.07;;;1.50;;
37983;SDS011;64625;50.882;4.376;2023-04-03T13:49:59;5.63;;;1.80;;
37983;SDS011;64625;50.882;4.376;2023-04-03T13:52:31;7.25;;;2.70;;
37983;SDS011;64625;50.882;4.376;2023-04-03T13:55:25;4.50;;;2.03;;
37983;SDS011;64625;50.882;4.376;2023-04-03T14:00:39;11.00;;;2.17;;
37983;SDS011;64625;50.882;4.376;2023-04-03T14:04:10;4.18;;;1.58;;
37983;SDS011;64625;50.882;4.376;2023-04-03T14:06:14;5.82;;;1.55;;
37983;SDS011;64625;50.882;4.376;2023-04-03T14:08:41;4.45;;;2.03;;
37983;SDS011;64625;50.882;4.376;2023-04-03T14:11:12;5.60;;;2.05;;
37983;SDS011;64625;50.882;4.376;2023-04-03T14:13:52;3.30;;;1.77;;
37983;SDS011;64625;50.882;4.376;2023-04-03T14:16:31;8.98;;;1.83;;
37983;SDS011;64625;50.882;4.376;2023-04-03T14:19:23;10.57;;;2.13;;
37983;SDS011;64625;50.882;4.376;2023-04-03T14:21:58;7.25;;;1.85;;
37983;SDS011;64625;50.882;4.376;2023-04-03T14:24:25;4.30;;;2.60;;
37983;SDS011;64625;50.882;4.376;2023-04-03T14:26:53;4.65;;;3.17;;
37983;SDS011;64625;50.882;4.376;2023-04-03T14:29:20;5.05;;;2.10;;
37983;SDS011;64625;50.882;4.376;2023-04-03T14:31:47;5.05;;;1.80;;
37983;SDS011;64625;50.882;4.376;2023-04-03T14:34:14;3.80;;;1.65;;
37983;SDS011;64625;50.882;4.376;2023-04-03T14:36:42;5.10;;;1.60;;
37983;SDS011;64625;50.882;4.376;2023-04-03T14:39:16;2.85;;;2.00;;
37983;SDS011;64625;50.882;4.376;2023-04-03T14:41:43;3.70;;;1.88;;
37983;SDS011;64625;50.882;4.376;2023-04-03T14:44:10;9.90;;;2.30;;
37983;SDS011;64625;50.882;4.376;2023-04-03T14:46:37;4.18;;;1.83;;
37983;SDS011;64625;50.882;4.376;2023-04-03T14:49:15;4.32;;;2.47;;
37983;SDS011;64625;50.882;4.376;2023-04-03T14:51:45;7.22;;;1.77;;
37983;SDS011;64625;50.882;4.376;2023-04-03T14:54:15;4.70;;;2.20;;
37983;SDS011;64625;50.882;4.376;2023-04-03T14:56:46;5.95;;;2.75;;
37983;SDS011;64625;50.882;4.376;2023-04-03T14:59:12;8.48;;;1.80;;
37983;SDS011;64625;50.882;4.376;2023-04-03T15:01:40;5.88;;;2.35;;
37983;SDS011;64625;50.882;4.376;2023-04-03T15:04:13;3.67;;;1.85;;
37983;SDS011;64625;50.882;4.376;2023-04-03T15:06:46;6.47;;;1.95;;
37983;SDS011;64625;50.882;4.376;2023-04-03T15:09:20;1.92;;;1.63;;
37983;SDS011;64625;50.882;4.376;2023-04-03T15:11:49;3.97;;;2.00;;
37983;SDS011;64625;50.882;4.376;2023-04-03T15:14:15;1.75;;;1.63;;
37983;SDS011;64625;50.882;4.376;2023-04-03T15:16:41;7.55;;;1.80;;
37983;SDS011;64625;50.882;4.376;2023-04-03T15:19:07;8.13;;;2.10;;
37983;SDS011;64625;50.882;4.376;2023-04-03T15:21:34;15.63;;;2.53;;
37983;SDS011;64625;50.882;4.376;2023-04-03T15:24:00;5.25;;;2.22;;
37983;SDS011;64625;50.882;4.376;2023-04-03T15:26:26;3.53;;;1.80;;
37983;SDS011;64625;50.882;4.376;2023-04-03T15:28:52;4.50;;;1.48;;
37983;SDS011;64625;50.882;4.376;2023-04-03T15:31:18;4.22;;;1.65;;
37983;SDS011;64625;50.882;4.376;2023-04-03T15:33:44;2.75;;;1.45;;
37983;SDS011;64625;50.882;4.376;2023-04-03T15:36:10;3.45;;;1.52;;
37983;SDS011;64625;50.882;4.376;2023-04-03T15:38:35;3.38;;;1.77;;
37983;SDS011;64625;50.882;4.376;2023-04-03T15:41:03;4.90;;;1.88;;
37983;SDS011;64625;50.882;4.376;2023-04-03T15:43:29;2.22;;;1.55;;
37983;SDS011;64625;50.882;4.376;2023-04-03T15:45:56;5.60;;;1.73;;
37983;SDS011;64625;50.882;4.376;2023-04-03T15:48:24;9.20;;;2.38;;
37983;SDS011;64625;50.882;4.376;2023-04-03T15:50:51;4.13;;;1.50;;
37983;SDS011;64625;50.882;4.376;2023-04-03T15:53:17;4.10;;;2.03;;
37983;SDS011;64625;50.882;4.376;2023-04-03T15:55:43;7.72;;;1.95;;
37983;SDS011;64625;50.882;4.376;2023-04-03T15:58:09;4.95;;;1.75;;
37983;SDS011;64625;50.882;4.376;2023-04-03T16:00:36;9.75;;;1.98;;
37983;SDS011;64625;50.882;4.376;2023-04-03T16:03:09;4.53;;;1.60;;
37983;SDS011;64625;50.882;4.376;2023-04-03T16:05:41;3.40;;;1.40;;
37983;SDS011;64625;50.882;4.376;2023-04-03T16:08:07;5.97;;;1.77;;
37983;SDS011;64625;50.882;4.376;2023-04-03T16:10:34;3.60;;;1.73;;
37983;SDS011;64625;50.882;4.376;2023-04-03T16:13:01;4.75;;;2.58;;
37983;SDS011;64625;50.882;4.376;2023-04-03T16:15:28;2.80;;;1.63;;
37983;SDS011;64625;50.882;4.376;2023-04-03T16:17:55;4.93;;;2.03;;
37983;SDS011;64625;50.882;4.376;2023-04-03T16:20:23;4.30;;;1.90;;
37983;SDS011;64625;50.882;4.376;2023-04-03T16:22:50;10.50;;;2.22;;
37983;SDS011;64625;50.882;4.376;2023-04-03T16:25:16;3.80;;;1.67;;
37983;SDS011;64625;50.882;4.376;2023-04-03T16:27:43;4.15;;;2.20;;
37983;SDS011;64625;50.882;4.376;2023-04-03T16:30:09;3.58;;;2.00;;
37983;SDS011;64625;50.882;4.376;2023-04-03T16:32:35;5.93;;;2.38;;
37983;SDS011;64625;50.882;4.376;2023-04-03T16:35:05;5.38;;;2.13;;
37983;SDS011;64625;50.882;4.376;2023-04-03T16:37:31;6.20;;;2.00;;
37983;SDS011;64625;50.882;4.376;2023-04-03T16:39:56;6.90;;;2.13;;
37983;SDS011;64625;50.882;4.376;2023-04-03T16:42:23;13.88;;;2.10;;
37983;SDS011;64625;50.882;4.376;2023-04-03T16:44:50;8.38;;;2.00;;
37983;SDS011;64625;50.882;4.376;2023-04-03T16:47:16;4.93;;;1.90;;
37983;SDS011;64625;50.882;4.376;2023-04-03T16:49:44;7.82;;;2.35;;
37983;SDS011;64625;50.882;4.376;2023-04-03T16:52:11;6.93;;;2.05;;
37983;SDS011;64625;50.882;4.376;2023-04-03T16:54:37;10.70;;;2.22;;
37983;SDS011;64625;50.882;4.376;2023-04-03T16:57:02;12.02;;;2.40;;
37983;SDS011;64625;50.882;4.376;2023-04-03T16:59:28;5.68;;;1.90;;
37983;SDS011;64625;50.882;4.376;2023-04-03T17:01:54;11.60;;;2.03;;